createdAt,value
2023-03-19T00:01:54.121Z,12.76
2023-03-19T00:04:41.164Z,12.75
2023-03-19T00:07:28.140Z,12.70
2023-03-19T00:10:15.139Z,12.68
2023-03-19T00:13:02.191Z,12.66
2023-03-19T00:15:49.080Z,12.63
2023-03-19T00:18:36.380Z,12.61
2023-03-19T00:21:25.893Z,12.58
2023-03-19T00:24:12.920Z,12.57
2023-03-19T00:26:59.811Z,12.55
2023-03-19T00:29:46.718Z,12.50
2023-03-19T00:32:34.134Z,12.48
2023-03-19T00:35:21.708Z,12.46
2023-03-19T00:38:08.942Z,12.43
2023-03-19T00:40:55.791Z,12.41
2023-03-19T00:43:42.636Z,12.39
2023-03-19T00:46:30.098Z,12.35
2023-03-19T00:49:17.193Z,12.34
2023-03-19T00:52:04.169Z,12.33
2023-03-19T00:54:51.036Z,12.31
2023-03-19T00:57:38.135Z,12.28
2023-03-19T01:00:25.045Z,12.26
2023-03-19T01:03:11.975Z,12.23
2023-03-19T01:05:59.283Z,12.21
2023-03-19T01:08:46.356Z,12.19
2023-03-19T01:11:33.280Z,12.17
2023-03-19T01:14:20.496Z,12.16
2023-03-19T01:17:07.353Z,12.12
2023-03-19T01:19:54.444Z,12.10
2023-03-19T01:22:42.388Z,12.07
2023-03-19T01:25:29.221Z,12.06
2023-03-19T01:28:16.277Z,12.01
2023-03-19T01:31:06.994Z,11.98
2023-03-19T01:33:53.959Z,11.96
2023-03-19T01:36:40.782Z,11.93
2023-03-19T01:39:27.709Z,11.89
2023-03-19T01:42:15.023Z,11.88
2023-03-19T01:45:03.779Z,11.85
2023-03-19T01:47:50.824Z,11.84
2023-03-19T01:50:42.142Z,11.81
2023-03-19T01:53:32.141Z,11.80
2023-03-19T01:56:22.705Z,11.78
2023-03-19T01:59:16.106Z,11.76
2023-03-19T02:02:07.915Z,11.74
2023-03-19T02:05:25.545Z,11.69
2023-03-19T02:08:15.095Z,11.68
2023-03-19T02:11:02.233Z,11.65
2023-03-19T02:13:49.201Z,11.63
2023-03-19T02:16:36.152Z,11.61
2023-03-19T02:19:31.936Z,11.58
2023-03-19T02:22:22.768Z,11.58
2023-03-19T02:25:13.620Z,11.55
2023-03-19T02:28:01.643Z,11.53
2023-03-19T02:30:48.824Z,11.50
2023-03-19T02:33:36.052Z,11.49
2023-03-19T02:36:23.465Z,11.46
2023-03-19T02:39:17.919Z,11.44
2023-03-19T02:42:06.139Z,11.41
2023-03-19T02:44:53.046Z,11.38
2023-03-19T02:47:40.007Z,11.36
2023-03-19T02:50:27.440Z,11.35
2023-03-19T02:53:15.868Z,11.31
2023-03-19T02:56:02.925Z,11.29
2023-03-19T02:58:49.775Z,11.26
2023-03-19T03:01:36.702Z,11.25
2023-03-19T03:04:23.695Z,11.22
2023-03-19T03:07:10.645Z,11.20
2023-03-19T03:09:57.467Z,11.19
2023-03-19T03:12:44.336Z,11.17
2023-03-19T03:15:31.546Z,11.15
2023-03-19T03:18:19.326Z,11.12
2023-03-19T03:21:06.161Z,11.11
2023-03-19T03:23:53.491Z,11.08
2023-03-19T03:26:40.326Z,11.06
2023-03-19T03:29:27.234Z,11.03
2023-03-19T03:32:14.280Z,11.01
2023-03-19T03:35:01.669Z,10.98
2023-03-19T03:37:51.984Z,10.98
2023-03-19T03:40:38.875Z,10.95
2023-03-19T03:43:25.780Z,10.92
2023-03-19T03:46:13.647Z,10.89
2023-03-19T03:49:00.624Z,10.89
2023-03-19T03:51:47.467Z,10.87
2023-03-19T03:54:34.542Z,10.84
2023-03-19T03:57:21.370Z,10.81
2023-03-19T04:00:09.247Z,10.80
2023-03-19T04:02:56.655Z,10.77
2023-03-19T04:05:44.501Z,10.75
2023-03-19T04:08:31.338Z,10.73
2023-03-19T04:11:18.602Z,10.71
2023-03-19T04:14:07.114Z,10.69
2023-03-19T04:16:54.127Z,10.67
2023-03-19T04:19:41.112Z,10.63
2023-03-19T04:22:28.541Z,10.63
2023-03-19T04:25:15.462Z,10.63
2023-03-19T04:28:02.283Z,10.59
2023-03-19T04:30:49.229Z,10.56
2023-03-19T04:33:36.450Z,10.56
2023-03-19T04:36:23.537Z,10.55
2023-03-19T04:39:10.395Z,10.53
2023-03-19T04:41:57.537Z,10.50
2023-03-19T04:44:44.443Z,10.48
2023-03-19T04:47:31.887Z,10.47
2023-03-19T04:50:19.116Z,10.44
2023-03-19T04:53:05.973Z,10.44
2023-03-19T04:55:53.027Z,10.41
2023-03-19T04:58:39.931Z,10.39
2023-03-19T05:01:27.261Z,10.37
2023-03-19T05:04:14.230Z,10.36
2023-03-19T05:07:01.181Z,10.34
2023-03-19T05:09:48.033Z,10.32
2023-03-19T05:12:34.953Z,10.31
2023-03-19T05:15:21.781Z,10.29
2023-03-19T05:18:08.702Z,10.27
2023-03-19T05:20:55.565Z,10.27
2023-03-19T05:23:42.472Z,10.25
2023-03-19T05:26:29.403Z,10.24
2023-03-19T05:29:16.336Z,10.21
2023-03-19T05:32:03.334Z,10.19
2023-03-19T05:34:50.204Z,10.18
2023-03-19T05:37:37.186Z,10.16
2023-03-19T05:40:24.221Z,10.16
2023-03-19T05:43:11.257Z,10.14
2023-03-19T05:45:59.007Z,10.13
2023-03-19T05:48:45.816Z,10.11
2023-03-19T05:51:32.714Z,10.09
2023-03-19T05:54:19.629Z,10.09
2023-03-19T05:57:06.666Z,10.06
2023-03-19T05:59:53.568Z,10.05
2023-03-19T06:02:40.584Z,10.04
2023-03-19T06:05:27.719Z,10.03
2023-03-19T06:08:14.631Z,10.00
2023-03-19T06:11:01.522Z,9.99
2023-03-19T06:13:48.360Z,9.97
2023-03-19T06:16:35.277Z,9.97
2023-03-19T06:19:22.785Z,9.95
2023-03-19T06:22:09.781Z,9.97
2023-03-19T06:24:56.675Z,9.93
2023-03-19T06:27:43.678Z,9.92
2023-03-19T06:30:30.956Z,9.91
2023-03-19T06:33:17.783Z,9.90
2023-03-19T06:36:05.226Z,9.89
2023-03-19T06:38:52.091Z,9.87
2023-03-19T06:41:38.980Z,9.86
2023-03-19T06:44:26.132Z,9.85
2023-03-19T06:47:13.096Z,9.83
2023-03-19T06:50:00.944Z,9.83
2023-03-19T06:52:47.788Z,9.82
2023-03-19T06:55:34.990Z,9.81
2023-03-19T06:58:22.109Z,9.80
2023-03-19T07:01:09.327Z,9.78
2023-03-19T07:03:57.319Z,9.78
2023-03-19T07:06:44.647Z,9.79
2023-03-19T07:09:32.221Z,9.77
2023-03-19T07:12:19.102Z,9.74
2023-03-19T07:15:06.655Z,9.76
2023-03-19T07:17:53.519Z,9.76
2023-03-19T07:20:40.384Z,9.75
2023-03-19T07:23:27.247Z,9.74
2023-03-19T07:26:14.192Z,9.73
2023-03-19T07:29:01.808Z,9.73
2023-03-19T07:31:48.727Z,9.71
2023-03-19T07:34:35.685Z,9.71
2023-03-19T07:37:22.729Z,9.71
2023-03-19T07:40:10.315Z,9.70
2023-03-19T07:42:57.214Z,9.70
2023-03-19T07:45:44.116Z,9.70
2023-03-19T07:48:31.047Z,9.70
2023-03-19T07:51:18.020Z,9.70
2023-03-19T07:54:04.880Z,9.71
2023-03-19T07:56:51.844Z,9.71
2023-03-19T07:59:38.701Z,9.74
2023-03-19T08:02:25.651Z,9.76
2023-03-19T08:05:12.693Z,9.77
2023-03-19T08:07:59.514Z,9.79
2023-03-19T08:10:47.980Z,9.82
2023-03-19T08:13:34.839Z,9.82
2023-03-19T08:16:21.744Z,9.85
2023-03-19T08:19:09.790Z,9.88
2023-03-19T08:21:56.701Z,9.94
2023-03-19T08:24:43.566Z,9.98
2023-03-19T08:27:31.484Z,10.00
2023-03-19T08:30:18.492Z,10.04
2023-03-19T08:33:05.435Z,10.05
2023-03-19T08:35:52.500Z,10.07
2023-03-19T08:38:41.564Z,10.09
2023-03-19T08:41:28.412Z,10.10
2023-03-19T08:44:16.377Z,10.12
2023-03-19T08:47:03.687Z,10.12
2023-03-19T08:49:51.815Z,10.13
2023-03-19T08:52:39.258Z,10.12
2023-03-19T08:55:26.141Z,10.15
2023-03-19T08:58:13.018Z,10.15
2023-03-19T09:01:05.041Z,10.17
2023-03-19T09:03:51.997Z,10.17
2023-03-19T09:06:38.825Z,10.19
2023-03-19T09:09:25.864Z,10.20
2023-03-19T09:12:15.271Z,10.22
2023-03-19T09:15:02.135Z,10.23
2023-03-19T09:17:48.958Z,10.23
2023-03-19T09:20:35.799Z,10.25
2023-03-19T09:23:23.305Z,10.26
2023-03-19T09:26:11.150Z,10.27
2023-03-19T09:28:58.816Z,10.29
2023-03-19T09:31:46.588Z,10.31
2023-03-19T09:34:33.457Z,10.32
2023-03-19T09:37:20.515Z,10.35
2023-03-19T09:40:08.849Z,10.34
2023-03-19T09:43:34.310Z,10.36
2023-03-19T09:46:30.067Z,10.38
2023-03-19T09:49:23.598Z,10.41
2023-03-19T09:52:25.647Z,10.44
2023-03-19T09:55:32.633Z,10.47
2023-03-19T09:58:37.596Z,10.47
2023-03-19T10:01:33.721Z,10.51
2023-03-19T10:04:38.243Z,10.53
2023-03-19T10:07:31.018Z,10.55
2023-03-19T10:10:49.093Z,10.58
2023-03-19T10:14:02.793Z,10.61
2023-03-19T10:16:50.889Z,10.64
2023-03-19T10:19:46.021Z,10.66
2023-03-19T10:22:44.381Z,10.69
2023-03-19T10:25:33.361Z,10.71
2023-03-19T10:28:20.381Z,10.73
2023-03-19T10:31:25.915Z,10.75
2023-03-19T10:34:24.937Z,10.78
2023-03-19T10:37:17.809Z,10.79
2023-03-19T10:40:14.773Z,10.81
2023-03-19T10:43:13.235Z,10.83
2023-03-19T10:46:00.193Z,10.85
2023-03-19T10:48:47.594Z,10.89
2023-03-19T10:51:38.570Z,10.91
2023-03-19T10:54:27.172Z,10.94
2023-03-19T10:57:27.940Z,10.96
2023-03-19T11:00:19.596Z,10.98
2023-03-19T11:03:30.190Z,10.99
2023-03-19T11:06:20.015Z,11.02
2023-03-19T11:09:10.423Z,11.02
2023-03-19T11:12:05.475Z,11.04
2023-03-19T11:14:53.667Z,11.08
2023-03-19T11:17:42.885Z,11.11
2023-03-19T11:20:32.522Z,11.09
2023-03-19T11:23:20.439Z,11.10
2023-03-19T11:26:07.599Z,11.11
2023-03-19T11:28:57.508Z,11.12
2023-03-19T11:32:21.482Z,11.15
2023-03-19T11:35:10.963Z,11.17
2023-03-19T11:38:00.848Z,11.19
2023-03-19T11:40:56.413Z,11.22
2023-03-19T11:43:45.549Z,11.25
2023-03-19T11:46:39.744Z,11.26
2023-03-19T11:49:57.590Z,11.31
2023-03-19T11:52:59.572Z,11.33
2023-03-19T11:56:00.324Z,11.37
2023-03-19T11:59:06.045Z,11.39
2023-03-19T12:02:19.666Z,11.43
2023-03-19T12:05:22.236Z,11.45
2023-03-19T12:08:18.116Z,11.48
2023-03-19T12:11:26.537Z,11.51
2023-03-19T12:14:27.959Z,11.55
2023-03-19T12:17:30.394Z,11.56
2023-03-19T12:20:23.379Z,11.57
2023-03-19T12:23:19.184Z,11.58
2023-03-19T12:26:29.843Z,11.64
2023-03-19T12:29:41.924Z,11.67
2023-03-19T12:32:47.526Z,11.71
2023-03-19T12:35:37.009Z,11.70
2023-03-19T12:38:40.297Z,11.71
2023-03-19T12:41:29.606Z,11.73
2023-03-19T12:44:20.501Z,11.75
2023-03-19T12:47:17.342Z,11.79
2023-03-19T12:50:07.230Z,11.79
2023-03-19T12:52:58.262Z,11.82
2023-03-19T12:55:50.061Z,11.85
2023-03-19T12:58:43.037Z,11.89
2023-03-19T13:01:45.680Z,11.94
2023-03-19T13:04:40.429Z,11.99
2023-03-19T13:07:45.273Z,12.03
2023-03-19T13:10:32.684Z,12.09
2023-03-19T13:13:51.740Z,12.13
2023-03-19T13:16:47.175Z,12.17
2023-03-19T13:19:48.560Z,12.19
2023-03-19T13:22:37.621Z,12.21
2023-03-19T13:25:37.370Z,12.23
2023-03-19T13:28:35.869Z,12.26
2023-03-19T13:31:26.633Z,12.28
2023-03-19T13:34:27.733Z,12.31
2023-03-19T13:37:19.346Z,12.34
2023-03-19T13:40:06.905Z,12.36
2023-03-19T13:42:57.282Z,12.39
2023-03-19T13:45:44.489Z,12.41
2023-03-19T13:48:43.920Z,12.44
2023-03-19T13:51:32.954Z,12.46
2023-03-19T13:54:25.267Z,12.48
2023-03-19T13:57:16.457Z,12.52
2023-03-19T14:00:45.303Z,12.55
2023-03-19T14:03:34.578Z,12.57
2023-03-19T14:06:37.044Z,12.60
2023-03-19T14:09:49.435Z,12.63
2023-03-19T14:12:38.004Z,12.64
2023-03-19T14:15:26.268Z,12.67
2023-03-19T14:18:21.295Z,12.68
2023-03-19T14:21:36.063Z,12.71
2023-03-19T14:24:55.229Z,12.72
2023-03-19T14:27:44.395Z,12.75
2023-03-19T14:30:40.347Z,12.78
2023-03-19T14:33:32.866Z,12.79
2023-03-19T14:36:21.919Z,12.83
2023-03-19T14:39:08.936Z,12.84
2023-03-19T14:42:02.036Z,12.85
2023-03-19T14:45:17.899Z,12.87
2023-03-19T14:48:25.371Z,12.89
2023-03-19T14:51:17.040Z,12.90
2023-03-19T14:54:11.107Z,12.94
2023-03-19T14:56:57.979Z,12.95
2023-03-19T14:59:44.945Z,12.97
2023-03-19T15:02:42.070Z,12.99
2023-03-19T15:05:33.219Z,13.01
2023-03-19T15:08:22.426Z,13.03
2023-03-19T15:11:18.287Z,13.06
2023-03-19T15:14:12.017Z,13.07
2023-03-19T15:17:15.532Z,13.11
2023-03-19T15:20:03.986Z,13.12
2023-03-19T15:22:55.486Z,13.13
2023-03-19T15:25:50.704Z,13.13
2023-03-19T15:28:49.273Z,13.16
2023-03-19T15:31:52.334Z,13.15
2023-03-19T15:34:42.847Z,13.17
2023-03-19T15:37:31.803Z,13.18
2023-03-19T15:40:20.113Z,13.19
2023-03-19T15:43:11.237Z,13.19
2023-03-19T15:45:58.148Z,13.21
2023-03-19T15:48:51.311Z,13.21
2023-03-19T15:51:38.788Z,13.22
2023-03-19T15:54:25.965Z,13.24
2023-03-19T15:57:14.889Z,13.25
2023-03-19T16:00:02.024Z,13.27
2023-03-19T16:02:51.560Z,13.28
2023-03-19T16:05:38.574Z,13.30
2023-03-19T16:08:26.604Z,13.32
2023-03-19T16:11:27.935Z,13.32
2023-03-19T16:14:14.790Z,13.34
2023-03-19T16:17:03.772Z,13.35
2023-03-19T16:19:50.680Z,13.36
2023-03-19T16:22:37.517Z,13.36
2023-03-19T16:25:28.416Z,13.37
2023-03-19T16:28:20.979Z,13.38
2023-03-19T16:31:19.629Z,13.38
2023-03-19T16:34:32.136Z,13.41
2023-03-19T16:37:33.061Z,13.41
2023-03-19T16:40:20.741Z,13.42
2023-03-19T16:43:14.481Z,13.44
2023-03-19T16:46:06.531Z,13.45
2023-03-19T16:48:53.411Z,13.44
2023-03-19T16:51:40.413Z,13.43
2023-03-19T16:54:27.297Z,13.45
2023-03-19T16:57:16.253Z,13.45
2023-03-19T17:00:03.741Z,13.45
2023-03-19T17:02:52.256Z,13.47
2023-03-19T17:05:39.075Z,13.44
2023-03-19T17:08:26.346Z,13.43
2023-03-19T17:11:18.989Z,13.43
2023-03-19T17:14:07.106Z,13.45
2023-03-19T17:16:55.290Z,13.44
2023-03-19T17:19:42.323Z,13.45
2023-03-19T17:22:29.317Z,13.44
2023-03-19T17:25:18.356Z,13.43
2023-03-19T17:28:06.096Z,13.43
2023-03-19T17:30:53.124Z,13.43
2023-03-19T17:33:39.921Z,13.41
2023-03-19T17:36:26.746Z,13.41
2023-03-19T17:39:13.563Z,13.41
2023-03-19T17:42:00.493Z,13.41
2023-03-19T17:44:47.514Z,13.40
2023-03-19T17:47:35.329Z,13.39
2023-03-19T17:50:25.135Z,13.38
2023-03-19T17:53:12.289Z,13.36
2023-03-19T17:55:59.108Z,13.34
2023-03-19T17:58:49.829Z,13.34
2023-03-19T18:01:37.984Z,13.33
2023-03-19T18:04:24.900Z,13.32
2023-03-19T18:07:11.740Z,13.31
2023-03-19T18:09:58.595Z,13.29
2023-03-19T18:12:46.165Z,13.28
2023-03-19T18:15:34.410Z,13.27
2023-03-19T18:18:21.856Z,13.24
2023-03-19T18:21:13.776Z,13.24
2023-03-19T18:24:01.361Z,13.21
2023-03-19T18:26:48.223Z,13.21
2023-03-19T18:29:35.087Z,13.19
2023-03-19T18:32:30.502Z,13.16
2023-03-19T18:35:19.867Z,13.18
2023-03-19T18:38:19.263Z,13.15
2023-03-19T18:41:06.287Z,13.13
2023-03-19T18:43:53.105Z,13.12
2023-03-19T18:46:40.701Z,13.11
2023-03-19T18:49:28.433Z,13.09
2023-03-19T18:52:19.062Z,13.08
2023-03-19T18:55:07.142Z,13.06
2023-03-19T18:57:57.277Z,13.03
2023-03-19T19:00:44.347Z,13.02
2023-03-19T19:03:32.950Z,13.00
2023-03-19T19:06:45.873Z,12.99
2023-03-19T19:09:33.624Z,12.98
2023-03-19T19:12:20.824Z,12.95
2023-03-19T19:15:15.875Z,12.93
2023-03-19T19:18:15.695Z,12.93
2023-03-19T19:21:02.838Z,12.90
2023-03-19T19:23:49.708Z,12.88
2023-03-19T19:26:37.309Z,12.85
2023-03-19T19:29:26.613Z,12.84
2023-03-19T19:32:24.615Z,12.83
2023-03-19T19:35:25.697Z,12.80
2023-03-19T19:38:13.600Z,12.79
2023-03-19T19:41:00.681Z,12.77
2023-03-19T19:43:47.825Z,12.74
2023-03-19T19:46:34.900Z,12.72
2023-03-19T19:49:22.411Z,12.71
2023-03-19T19:52:14.231Z,12.68
2023-03-19T19:55:01.074Z,12.65
2023-03-19T19:57:47.968Z,12.64
2023-03-19T20:00:34.879Z,12.62
2023-03-19T20:03:27.097Z,12.60
2023-03-19T20:06:14.450Z,12.58
2023-03-19T20:09:01.361Z,12.56
2023-03-19T20:11:48.491Z,12.53
2023-03-19T20:14:35.443Z,12.51
2023-03-19T20:17:22.409Z,12.49
2023-03-19T20:20:17.915Z,12.48
2023-03-19T20:23:04.754Z,12.45
2023-03-19T20:25:52.110Z,12.42
2023-03-19T20:28:38.997Z,12.40
2023-03-19T20:31:29.735Z,12.38
2023-03-19T20:34:25.525Z,12.36
2023-03-19T20:37:19.460Z,12.33
2023-03-19T20:40:07.023Z,12.31
2023-03-19T20:42:53.872Z,12.28
2023-03-19T20:45:40.708Z,12.27
2023-03-19T20:48:27.951Z,12.25
2023-03-19T20:51:21.510Z,12.23
2023-03-19T20:54:08.368Z,12.21
2023-03-19T20:56:55.272Z,12.19
2023-03-19T20:59:44.448Z,12.15
2023-03-19T21:02:31.334Z,12.13
2023-03-19T21:05:18.694Z,12.11
2023-03-19T21:08:11.001Z,12.09
2023-03-19T21:10:58.150Z,12.06
2023-03-19T21:13:49.131Z,12.03
2023-03-19T21:16:36.438Z,12.01
2023-03-19T21:19:24.143Z,11.99
2023-03-19T21:22:15.806Z,11.98
2023-03-19T21:25:06.310Z,11.94
2023-03-19T21:27:55.577Z,11.93
2023-03-19T21:30:44.117Z,11.91
2023-03-19T21:33:33.324Z,11.88
2023-03-19T21:36:20.408Z,11.86
2023-03-19T21:39:07.240Z,11.85
2023-03-19T21:41:54.145Z,11.83
2023-03-19T21:44:41.043Z,11.80
2023-03-19T21:47:27.964Z,11.78
2023-03-19T21:50:17.423Z,11.76
2023-03-19T21:53:04.238Z,11.73
2023-03-19T21:55:52.262Z,11.71
2023-03-19T21:58:39.145Z,11.68
2023-03-19T22:01:26.161Z,11.67
2023-03-19T22:04:13.216Z,11.65
2023-03-19T22:07:00.669Z,11.62
2023-03-19T22:09:47.510Z,11.60
2023-03-19T22:12:35.766Z,11.58
2023-03-19T22:15:30.222Z,11.56
2023-03-19T22:18:17.290Z,11.54
2023-03-19T22:21:04.407Z,11.52
2023-03-19T22:23:51.879Z,11.51
2023-03-19T22:26:40.869Z,11.48
2023-03-19T22:29:27.835Z,11.47
2023-03-19T22:32:18.817Z,11.46
2023-03-19T22:35:06.209Z,11.44
2023-03-19T22:37:53.101Z,11.42
2023-03-19T22:40:40.259Z,11.40
2023-03-19T22:43:37.907Z,11.39
2023-03-19T22:46:25.571Z,11.37
2023-03-19T22:49:13.922Z,11.37
2023-03-19T22:52:00.769Z,11.36
2023-03-19T22:54:47.969Z,11.35
2023-03-19T22:57:34.766Z,11.33
2023-03-19T23:00:23.677Z,11.31
2023-03-19T23:03:17.867Z,11.29
2023-03-19T23:06:10.498Z,11.30
2023-03-19T23:09:01.337Z,11.28
2023-03-19T23:11:48.515Z,11.27
2023-03-19T23:14:36.832Z,11.27
2023-03-19T23:17:23.731Z,11.24
2023-03-19T23:20:12.962Z,11.24
2023-03-19T23:22:59.815Z,11.22
2023-03-19T23:25:47.526Z,11.21
2023-03-19T23:28:34.806Z,11.19
2023-03-19T23:31:21.764Z,11.19
2023-03-19T23:34:11.358Z,11.18
2023-03-19T23:36:59.966Z,11.16
2023-03-19T23:39:47.898Z,11.14
2023-03-19T23:42:35.096Z,11.13
2023-03-19T23:45:39.002Z,11.12
2023-03-19T23:48:32.402Z,11.09
2023-03-19T23:51:19.273Z,11.09
2023-03-19T23:54:24.578Z,11.06
2023-03-19T23:57:14.358Z,11.04
